KAL788 RJFF-RKSI
Flight info
| Callsign | KAL788 |
|---|---|
| Flight time | N/A |
| Altitude | 28000 |
| Route | DGC G339 BEETL Y208 INVOK Z91 PSN Y782 BITUX Z53 BASEM Y685 GUKDO GUKDO2E |
| Aircraft | B77W/H-SDE1E2E3FGHIJ2J3J4J5M1RWXY/LB1D1 |
Departure
| Time | 2026-05-07 13:54 |
|---|---|
| Airport | Fukuoka Airport (RJFF) |
Arrival
| Time | N/A |
|---|---|
| Airport | Incheon International Airport (RKSI) |
| Time | Latitude | Longitude | Altitude | Speed | Heading |
|---|---|---|---|---|---|
| 2026-05-07 13:29 | 33.58497 | 130.44567 | 39 ft | 0 kts | 241° |
| 2026-05-07 13:45 | 33.58619 | 130.44657 | 42 ft | 0 kts | 154° |
| 2026-05-07 13:45 | 33.58631 | 130.44650 | 42 ft | 0 kts | 149° |
| 2026-05-07 13:49 | 33.58592 | 130.44679 | 42 ft | 15 kts | 148° |
| 2026-05-07 13:49 | 33.58470 | 130.44762 | 42 ft | 20 kts | 152° |
| 2026-05-07 13:49 | 33.58351 | 130.44843 | 44 ft | 20 kts | 150° |
| 2026-05-07 13:49 | 33.58230 | 130.44924 | 42 ft | 20 kts | 150° |
| 2026-05-07 13:50 | 33.58111 | 130.45005 | 42 ft | 20 kts | 151° |
| 2026-05-07 13:50 | 33.57990 | 130.45085 | 41 ft | 20 kts | 151° |
| 2026-05-07 13:50 | 33.57901 | 130.45144 | 42 ft | 10 kts | 150° |
| 2026-05-07 13:50 | 33.57843 | 130.45184 | 44 ft | 10 kts | 150° |
| 2026-05-07 13:51 | 33.57784 | 130.45225 | 44 ft | 10 kts | 149° |
| 2026-05-07 13:51 | 33.57725 | 130.45265 | 44 ft | 10 kts | 150° |
| 2026-05-07 13:51 | 33.57662 | 130.45307 | 45 ft | 10 kts | 150° |
| 2026-05-07 13:51 | 33.57601 | 130.45349 | 47 ft | 10 kts | 150° |
| 2026-05-07 13:52 | 33.57535 | 130.45393 | 47 ft | 14 kts | 150° |
| 2026-05-07 13:52 | 33.57431 | 130.45464 | 45 ft | 18 kts | 150° |
| 2026-05-07 13:52 | 33.57409 | 130.45595 | 47 ft | 18 kts | 65° |
| 2026-05-07 13:52 | 33.57465 | 130.45721 | 50 ft | 15 kts | 60° |
| 2026-05-07 13:53 | 33.57549 | 130.45777 | 49 ft | 15 kts | 340° |
| 2026-05-07 13:53 | 33.57583 | 130.45755 | 49 ft | 2 kts | 330° |
| 2026-05-07 13:53 | 33.57706 | 130.45672 | 46 ft | 53 kts | 330° |
| 2026-05-07 13:53 | 33.58269 | 130.45288 | 42 ft | 131 kts | 330° |
| 2026-05-07 13:54 | 33.59242 | 130.44620 | 122 ft | 180 kts | 329° |
| 2026-05-07 13:54 | 33.60339 | 130.43845 | 735 ft | 190 kts | 330° |
| 2026-05-07 13:54 | 33.61487 | 130.43084 | 1548 ft | 186 kts | 328° |
| 2026-05-07 13:54 | 33.62652 | 130.42313 | 2058 ft | 202 kts | 328° |
| 2026-05-07 13:55 | 33.63954 | 130.41441 | 2284 ft | 227 kts | 327° |
| 2026-05-07 13:55 | 33.65402 | 130.40468 | 2652 ft | 247 kts | 327° |
| 2026-05-07 13:55 | 33.66929 | 130.39444 | 3252 ft | 258 kts | 327° |
| 2026-05-07 13:55 | 33.68483 | 130.38304 | 3911 ft | 265 kts | 321° |
| 2026-05-07 13:56 | 33.69966 | 130.36939 | 4686 ft | 270 kts | 317° |
| 2026-05-07 13:56 | 33.71434 | 130.35513 | 5501 ft | 272 kts | 317° |
| 2026-05-07 13:56 | 33.72902 | 130.34080 | 6350 ft | 273 kts | 317° |
| 2026-05-07 13:56 | 33.74383 | 130.32641 | 7153 ft | 274 kts | 317° |
| 2026-05-07 13:57 | 33.75870 | 130.31203 | 7959 ft | 275 kts | 317° |
| 2026-05-07 13:57 | 33.77366 | 130.29763 | 8778 ft | 275 kts | 317° |
| 2026-05-07 13:57 | 33.78843 | 130.28345 | 9539 ft | 276 kts | 317° |
| 2026-05-07 13:57 | 33.80354 | 130.26897 | 9991 ft | 279 kts | 317° |
| 2026-05-07 13:58 | 33.81890 | 130.25426 | 10007 ft | 284 kts | 317° |
| 2026-05-07 13:58 | 33.83422 | 130.23962 | 10011 ft | 284 kts | 317° |
| 2026-05-07 13:58 | 33.84997 | 130.22457 | 10045 ft | 293 kts | 317° |
| 2026-05-07 13:58 | 33.86655 | 130.20865 | 10221 ft | 317 kts | 317° |
| 2026-05-07 13:59 | 33.88448 | 130.19143 | 10411 ft | 342 kts | 317° |
| 2026-05-07 13:59 | 33.90359 | 130.17312 | 10775 ft | 359 kts | 317° |
| 2026-05-07 13:59 | 33.92342 | 130.15418 | 11414 ft | 368 kts | 317° |
| 2026-05-07 13:59 | 33.94367 | 130.13487 | 12237 ft | 373 kts | 317° |
| 2026-05-07 14:00 | 33.96416 | 130.11532 | 13190 ft | 377 kts | 317° |
| 2026-05-07 14:00 | 33.98484 | 130.09555 | 14024 ft | 383 kts | 316° |
| 2026-05-07 14:00 | 34.00587 | 130.07543 | 14804 ft | 388 kts | 316° |
| 2026-05-07 14:00 | 34.02703 | 130.05514 | 15586 ft | 393 kts | 316° |
| 2026-05-07 14:01 | 34.04845 | 130.03460 | 16393 ft | 397 kts | 315° |
| 2026-05-07 14:01 | 34.07017 | 130.01374 | 17166 ft | 403 kts | 315° |
| 2026-05-07 14:01 | 34.09235 | 129.99242 | 17859 ft | 408 kts | 314° |
| 2026-05-07 14:01 | 34.11474 | 129.97089 | 17935 ft | 412 kts | 314° |
| 2026-05-07 14:02 | 34.13717 | 129.94933 | 17948 ft | 411 kts | 314° |
| 2026-05-07 14:02 | 34.15942 | 129.92795 | 17940 ft | 411 kts | 314° |
| 2026-05-07 14:02 | 34.18204 | 129.90615 | 18338 ft | 416 kts | 314° |
| 2026-05-07 14:02 | 34.20466 | 129.88435 | 19056 ft | 417 kts | 315° |
| 2026-05-07 14:03 | 34.22744 | 129.86239 | 19821 ft | 418 kts | 315° |
| 2026-05-07 14:03 | 34.25026 | 129.84036 | 20522 ft | 421 kts | 315° |
| 2026-05-07 14:03 | 34.27327 | 129.81815 | 21173 ft | 425 kts | 315° |
| 2026-05-07 14:03 | 34.29650 | 129.79593 | 21798 ft | 429 kts | 316° |
| 2026-05-07 14:04 | 34.32010 | 129.77345 | 22426 ft | 433 kts | 316° |
| 2026-05-07 14:04 | 34.34394 | 129.75075 | 23053 ft | 436 kts | 316° |
| 2026-05-07 14:04 | 34.36774 | 129.72808 | 23622 ft | 440 kts | 316° |
| 2026-05-07 14:04 | 34.39198 | 129.70494 | 24097 ft | 444 kts | 316° |
| 2026-05-07 14:05 | 34.41636 | 129.68164 | 24564 ft | 447 kts | 316° |
| 2026-05-07 14:05 | 34.44084 | 129.65822 | 25043 ft | 451 kts | 316° |
| 2026-05-07 14:05 | 34.46554 | 129.63456 | 25523 ft | 454 kts | 316° |
| 2026-05-07 14:05 | 34.49000 | 129.61112 | 26000 ft | 457 kts | 316° |
| 2026-05-07 14:06 | 34.51544 | 129.58672 | 26567 ft | 457 kts | 316° |
| 2026-05-07 14:06 | 34.54008 | 129.56309 | 27253 ft | 455 kts | 315° |
| 2026-05-07 14:06 | 34.56504 | 129.53913 | 27871 ft | 455 kts | 315° |
| 2026-05-07 14:06 | 34.58983 | 129.51530 | 27903 ft | 452 kts | 315° |
| 2026-05-07 14:07 | 34.61406 | 129.49199 | 27925 ft | 450 kts | 315° |
| 2026-05-07 14:07 | 34.63864 | 129.46830 | 27928 ft | 451 kts | 315° |
| 2026-05-07 14:07 | 34.66348 | 129.44434 | 27922 ft | 452 kts | 315° |
| 2026-05-07 14:07 | 34.68775 | 129.42090 | 27920 ft | 452 kts | 315° |
| 2026-05-07 14:08 | 34.71237 | 129.39713 | 27929 ft | 452 kts | 315° |
| 2026-05-07 14:08 | 34.73697 | 129.37336 | 27915 ft | 452 kts | 315° |
| 2026-05-07 14:08 | 34.76164 | 129.34951 | 27918 ft | 452 kts | 315° |
| 2026-05-07 14:08 | 34.78627 | 129.32568 | 27920 ft | 451 kts | 314° |
| 2026-05-07 14:09 | 34.81083 | 129.30193 | 27911 ft | 451 kts | 314° |
| 2026-05-07 14:09 | 34.83536 | 129.27824 | 27914 ft | 450 kts | 314° |
| 2026-05-07 14:09 | 34.85963 | 129.25480 | 27905 ft | 450 kts | 314° |
| 2026-05-07 14:09 | 34.88428 | 129.23098 | 27907 ft | 449 kts | 314° |
| 2026-05-07 14:10 | 34.90510 | 129.21083 | 27904 ft | 448 kts | 314° |
| 2026-05-07 14:10 | 34.92964 | 129.18706 | 27907 ft | 448 kts | 314° |
| 2026-05-07 14:10 | 34.95396 | 129.16348 | 27904 ft | 447 kts | 314° |
| 2026-05-07 14:10 | 34.97833 | 129.13983 | 27910 ft | 447 kts | 314° |
| 2026-05-07 14:11 | 35.00266 | 129.11619 | 27911 ft | 446 kts | 314° |
| 2026-05-07 14:11 | 35.02693 | 129.09260 | 27911 ft | 446 kts | 314° |
| 2026-05-07 14:11 | 35.05106 | 129.06911 | 27909 ft | 445 kts | 314° |
| 2026-05-07 14:11 | 35.07509 | 129.04573 | 27913 ft | 445 kts | 314° |
| 2026-05-07 14:12 | 35.09927 | 129.02222 | 27914 ft | 445 kts | 315° |
| 2026-05-07 14:12 | 35.12470 | 129.00020 | 27904 ft | 450 kts | 320° |
| 2026-05-07 14:12 | 35.15203 | 128.98089 | 27915 ft | 456 kts | 325° |
| 2026-05-07 14:12 | 35.18063 | 128.96396 | 27919 ft | 457 kts | 327° |
| 2026-05-07 14:13 | 35.20935 | 128.94734 | 27921 ft | 458 kts | 327° |
| 2026-05-07 14:13 | 35.23825 | 128.93064 | 27913 ft | 458 kts | 327° |
| 2026-05-07 14:13 | 35.26688 | 128.91397 | 27925 ft | 458 kts | 326° |
| 2026-05-07 14:13 | 35.29565 | 128.89707 | 27926 ft | 458 kts | 326° |
| 2026-05-07 14:14 | 35.32442 | 128.88008 | 27920 ft | 459 kts | 326° |
| 2026-05-07 14:14 | 35.35316 | 128.86305 | 27907 ft | 459 kts | 326° |
| 2026-05-07 14:14 | 35.38196 | 128.84596 | 27907 ft | 459 kts | 326° |
| 2026-05-07 14:14 | 35.41068 | 128.82891 | 27903 ft | 458 kts | 326° |
| 2026-05-07 14:15 | 35.43930 | 128.81191 | 27903 ft | 457 kts | 326° |
| 2026-05-07 14:15 | 35.46761 | 128.79508 | 27910 ft | 457 kts | 326° |
| 2026-05-07 14:15 | 35.49621 | 128.77807 | 27903 ft | 456 kts | 326° |
| 2026-05-07 14:15 | 35.52485 | 128.76105 | 27892 ft | 456 kts | 326° |
| 2026-05-07 14:16 | 35.55328 | 128.74416 | 27895 ft | 455 kts | 325° |
| 2026-05-07 14:16 | 35.58172 | 128.72725 | 27901 ft | 455 kts | 325° |
| 2026-05-07 14:16 | 35.61027 | 128.71027 | 27896 ft | 454 kts | 325° |
| 2026-05-07 14:16 | 35.63869 | 128.69335 | 27903 ft | 454 kts | 325° |
| 2026-05-07 14:17 | 35.66701 | 128.67646 | 27897 ft | 454 kts | 325° |
| 2026-05-07 14:17 | 35.69541 | 128.65951 | 27894 ft | 454 kts | 325° |
| 2026-05-07 14:17 | 35.72391 | 128.64251 | 27893 ft | 453 kts | 325° |
| 2026-05-07 14:17 | 35.75221 | 128.62561 | 27887 ft | 453 kts | 325° |
| 2026-05-07 14:18 | 35.78043 | 128.60826 | 27903 ft | 448 kts | 322° |
| 2026-05-07 14:18 | 35.80664 | 128.58815 | 27881 ft | 442 kts | 316° |
| 2026-05-07 14:18 | 35.83111 | 128.56559 | 27878 ft | 436 kts | 311° |
| 2026-05-07 14:18 | 35.85355 | 128.54048 | 27893 ft | 431 kts | 307° |
| 2026-05-07 14:19 | 35.87508 | 128.51468 | 27897 ft | 431 kts | 307° |
| 2026-05-07 14:19 | 35.89656 | 128.48880 | 27895 ft | 432 kts | 307° |
| 2026-05-07 14:19 | 35.91808 | 128.46289 | 27897 ft | 432 kts | 307° |
| 2026-05-07 14:19 | 35.93962 | 128.43706 | 27903 ft | 433 kts | 307° |
| 2026-05-07 14:20 | 35.96129 | 128.41113 | 27906 ft | 433 kts | 307° |
| 2026-05-07 14:20 | 35.98293 | 128.38529 | 27901 ft | 433 kts | 307° |
| 2026-05-07 14:20 | 36.00459 | 128.35943 | 27906 ft | 433 kts | 307° |
| 2026-05-07 14:20 | 36.02626 | 128.33356 | 27903 ft | 432 kts | 307° |
| 2026-05-07 14:21 | 36.04785 | 128.30777 | 27915 ft | 431 kts | 307° |
| 2026-05-07 14:21 | 36.06913 | 128.28232 | 27925 ft | 430 kts | 307° |
| 2026-05-07 14:21 | 36.09091 | 128.25622 | 27912 ft | 431 kts | 307° |
| 2026-05-07 14:21 | 36.11235 | 128.23051 | 27923 ft | 430 kts | 307° |
| 2026-05-07 14:22 | 36.13360 | 128.20501 | 27923 ft | 430 kts | 307° |
| 2026-05-07 14:22 | 36.15505 | 128.17925 | 27911 ft | 430 kts | 307° |
| 2026-05-07 14:22 | 36.17651 | 128.15347 | 27925 ft | 430 kts | 307° |
| 2026-05-07 14:22 | 36.19795 | 128.12768 | 27919 ft | 430 kts | 307° |
| 2026-05-07 14:23 | 36.21938 | 128.10190 | 27928 ft | 430 kts | 307° |
| 2026-05-07 14:23 | 36.24079 | 128.07613 | 27924 ft | 429 kts | 307° |
| 2026-05-07 14:23 | 36.26450 | 128.05292 | 27928 ft | 444 kts | 319° |
| 2026-05-07 14:23 | 36.29239 | 128.03530 | 27939 ft | 456 kts | 327° |
| 2026-05-07 14:24 | 36.32294 | 128.02283 | 27929 ft | 471 kts | 338° |
| 2026-05-07 14:24 | 36.35592 | 128.01695 | 27937 ft | 481 kts | 344° |
| 2026-05-07 14:24 | 36.38938 | 128.01304 | 27934 ft | 483 kts | 345° |
| 2026-05-07 14:24 | 36.42267 | 128.00938 | 27924 ft | 482 kts | 345° |
| 2026-05-07 14:25 | 36.45615 | 128.00539 | 27921 ft | 481 kts | 344° |
| 2026-05-07 14:25 | 36.48944 | 128.00101 | 27915 ft | 480 kts | 343° |
| 2026-05-07 14:25 | 36.52262 | 127.99642 | 27917 ft | 479 kts | 343° |
| 2026-05-07 14:25 | 36.55560 | 127.99183 | 27913 ft | 472 kts | 343° |
| 2026-05-07 14:26 | 36.58792 | 127.98743 | 27914 ft | 464 kts | 343° |
| 2026-05-07 14:26 | 36.61991 | 127.98315 | 27909 ft | 460 kts | 343° |
| 2026-05-07 14:26 | 36.65167 | 127.97893 | 27605 ft | 455 kts | 343° |
| 2026-05-07 14:26 | 36.68311 | 127.97472 | 27119 ft | 452 kts | 342° |
| 2026-05-07 14:27 | 36.71428 | 127.97052 | 26586 ft | 449 kts | 342° |
| 2026-05-07 14:27 | 36.74526 | 127.96633 | 26045 ft | 447 kts | 343° |
| 2026-05-07 14:27 | 36.77608 | 127.96219 | 25583 ft | 443 kts | 342° |
| 2026-05-07 14:27 | 36.80644 | 127.95773 | 25131 ft | 431 kts | 338° |
| 2026-05-07 14:28 | 36.83392 | 127.94627 | 24547 ft | 404 kts | 320° |
| 2026-05-07 14:28 | 36.85620 | 127.92670 | 24104 ft | 383 kts | 307° |
| 2026-05-07 14:28 | 36.87341 | 127.90269 | 23682 ft | 361 kts | 296° |
| 2026-05-07 14:28 | 36.88275 | 127.88549 | 23277 ft | 360 kts | 295° |
| 2026-05-07 14:29 | 36.90138 | 127.85110 | 22478 ft | 361 kts | 295° |
| 2026-05-07 14:29 | 36.91562 | 127.82538 | 21990 ft | 360 kts | 296° |
| 2026-05-07 14:29 | 36.92530 | 127.80803 | 21666 ft | 358 kts | 296° |
| 2026-05-07 14:29 | 36.94418 | 127.77446 | 20880 ft | 352 kts | 296° |
| 2026-05-07 14:30 | 36.95352 | 127.75797 | 20375 ft | 348 kts | 296° |
| 2026-05-07 14:30 | 36.96747 | 127.73331 | 19694 ft | 348 kts | 296° |
| 2026-05-07 14:30 | 36.98146 | 127.70842 | 19027 ft | 352 kts | 296° |
| 2026-05-07 14:30 | 36.99564 | 127.68324 | 18414 ft | 355 kts | 296° |
| 2026-05-07 14:31 | 37.00800 | 127.65697 | 18223 ft | 347 kts | 286° |
| 2026-05-07 14:31 | 37.01715 | 127.62923 | 17777 ft | 343 kts | 283° |
| 2026-05-07 14:31 | 37.02517 | 127.60089 | 17175 ft | 346 kts | 282° |
| 2026-05-07 14:31 | 37.03269 | 127.57222 | 16576 ft | 347 kts | 282° |
| 2026-05-07 14:32 | 37.03986 | 127.54350 | 15975 ft | 346 kts | 282° |
| 2026-05-07 14:32 | 37.04676 | 127.51458 | 15385 ft | 346 kts | 281° |
| 2026-05-07 14:32 | 37.05334 | 127.48565 | 14794 ft | 345 kts | 281° |
| 2026-05-07 14:32 | 37.05965 | 127.45668 | 14238 ft | 345 kts | 281° |
| 2026-05-07 14:33 | 37.06572 | 127.42767 | 13685 ft | 344 kts | 281° |
| 2026-05-07 14:33 | 37.07159 | 127.39870 | 13061 ft | 343 kts | 281° |
| 2026-05-07 14:33 | 37.07741 | 127.36963 | 12438 ft | 343 kts | 281° |
| 2026-05-07 14:33 | 37.08305 | 127.34108 | 11836 ft | 342 kts | 281° |
| 2026-05-07 14:34 | 37.08880 | 127.31178 | 11256 ft | 341 kts | 281° |
| 2026-05-07 14:34 | 37.09432 | 127.28341 | 10681 ft | 341 kts | 281° |
| 2026-05-07 14:34 | 37.09985 | 127.25454 | 10110 ft | 340 kts | 281° |
| 2026-05-07 14:34 | 37.10533 | 127.22566 | 9505 ft | 340 kts | 281° |
| 2026-05-07 14:35 | 37.11071 | 127.19678 | 8872 ft | 340 kts | 281° |
| 2026-05-07 14:35 | 37.11592 | 127.16797 | 8268 ft | 340 kts | 281° |
| 2026-05-07 14:35 | 37.12102 | 127.13906 | 7650 ft | 335 kts | 281° |
| 2026-05-07 14:35 | 37.12580 | 127.11137 | 7269 ft | 315 kts | 281° |
| 2026-05-07 14:36 | 37.13022 | 127.08537 | 7074 ft | 294 kts | 281° |
| 2026-05-07 14:36 | 37.13427 | 127.06120 | 7019 ft | 278 kts | 281° |
| 2026-05-07 14:36 | 37.13826 | 127.03707 | 7029 ft | 284 kts | 281° |
| 2026-05-07 14:36 | 37.14221 | 127.01296 | 7019 ft | 280 kts | 281° |
| 2026-05-07 14:37 | 37.14611 | 126.98920 | 7011 ft | 276 kts | 281° |
| 2026-05-07 14:37 | 37.15370 | 126.94233 | 7021 ft | 277 kts | 281° |
| 2026-05-07 14:37 | 37.15776 | 126.91871 | 7010 ft | 276 kts | 285° |
| 2026-05-07 14:38 | 37.16393 | 126.89612 | 6983 ft | 272 kts | 290° |
| 2026-05-07 14:38 | 37.17086 | 126.87396 | 6664 ft | 274 kts | 291° |
| 2026-05-07 14:38 | 37.17789 | 126.85176 | 6315 ft | 273 kts | 291° |
| 2026-05-07 14:38 | 37.18485 | 126.82967 | 5961 ft | 272 kts | 291° |
| 2026-05-07 14:39 | 37.19178 | 126.80758 | 5596 ft | 272 kts | 291° |
| 2026-05-07 14:39 | 37.19867 | 126.78548 | 5245 ft | 271 kts | 291° |
| 2026-05-07 14:39 | 37.20539 | 126.76364 | 5074 ft | 263 kts | 291° |
| 2026-05-07 14:39 | 37.21173 | 126.74285 | 5014 ft | 252 kts | 291° |
| 2026-05-07 14:40 | 37.21777 | 126.72285 | 5005 ft | 241 kts | 291° |
| 2026-05-07 14:40 | 37.22397 | 126.70348 | 5006 ft | 238 kts | 297° |
| 2026-05-07 14:40 | 37.23202 | 126.68522 | 4977 ft | 242 kts | 300° |
| 2026-05-07 14:40 | 37.24073 | 126.66676 | 4628 ft | 249 kts | 301° |
| 2026-05-07 14:41 | 37.24957 | 126.64796 | 4250 ft | 250 kts | 301° |
| 2026-05-07 14:41 | 37.25844 | 126.62917 | 3899 ft | 248 kts | 307° |
| 2026-05-07 14:41 | 37.27033 | 126.61398 | 3605 ft | 244 kts | 321° |
| 2026-05-07 14:41 | 37.28391 | 126.60097 | 3179 ft | 247 kts | 325° |